Flight Track Log - Related Links

Times and Time Zones

All times are in EDT time to prevent confusion due to time zone crossing. See the CES2126 flight status page for this flight to view local times or setup timezone preferences in your user account.

Time Position Orientation Groundspeed Altitude Reporting Facility
EDT Latitude Longitude Course Direction KTS MPH feet Rate Location/Type
Wed 12:19:00 PM 27.5575 104.3439 27° Northeast  Level Estimated
Wed 12:20:00 PM 27.6554 104.4018 28° Northeast  Level Estimated
Wed 12:21:00 PM 27.7533 104.4598 28° Northeast  Level Estimated
Wed 12:22:00 PM 27.8512 104.5179 28° Northeast  Level Estimated
Wed 12:23:00 PM 27.9491 104.5760 28° Northeast  Level Estimated
Wed 12:24:00 PM 28.0469 104.6343 28° Northeast  Level Estimated
Wed 12:25:00 PM 28.1447 104.6927 28° Northeast  Level Estimated
Wed 12:26:00 PM 28.2425 104.7512 28° Northeast  Level Estimated
Wed 12:27:00 PM 28.3402 104.8098 28° Northeast  Level Estimated
Wed 12:28:00 PM 28.4379 104.8686 28° Northeast  Level Estimated
Wed 12:29:00 PM 28.5356 104.9274 28° Northeast  Level Estimated
Wed 12:30:00 PM 28.6333 104.9863 28° Northeast  Level Estimated
Wed 12:31:00 PM 28.7310 105.0454 28° Northeast  Level Estimated
Wed 12:32:00 PM 28.8286 105.1045 28° Northeast  Level Estimated
Wed 12:33:00 PM 28.9262 105.1638 28° Northeast  Level Estimated
Wed 12:34:00 PM 29.0238 105.2232 28° Northeast  Level Estimated
Wed 12:35:00 PM 29.1213 105.2827 28° Northeast  Level Estimated
Wed 12:36:00 PM 29.2188 105.3423 28° Northeast  Level Estimated
Wed 12:37:00 PM 29.3163 105.4020 28° Northeast  Level Estimated
Wed 12:38:00 PM 29.4138 105.4618 28° Northeast  Level Estimated
Wed 12:39:00 PM 29.5112 105.5218 28° Northeast  Level Estimated
Wed 12:40:00 PM 29.6087 105.5818 28° Northeast  Level Estimated
Wed 12:41:00 PM 29.7061 105.6420 28° Northeast  Level Estimated
Wed 12:42:00 PM 29.8034 105.7023 28° Northeast  Level Estimated
Wed 12:43:00 PM 29.9007 105.7627 28° Northeast  Level Estimated
Wed 12:44:00 PM 29.9981 105.8233 28° Northeast  Level Estimated
Wed 12:45:00 PM 30.0953 105.8839 28° Northeast  Level Estimated
Wed 12:46:00 PM 30.1926 105.9447 28° Northeast  Level Estimated
Wed 12:47:00 PM 30.2898 106.0056 28° Northeast  Level Estimated
Wed 12:48:00 PM 30.3870 106.0666 28° Northeast  Level Estimated
Wed 12:49:00 PM 30.4842 106.1277 28° Northeast  Level Estimated
Wed 12:50:00 PM 30.5813 106.1890 28° Northeast  Level Estimated
Wed 12:51:00 PM 30.6784 106.2503 29° Northeast  Level Estimated
Wed 12:52:00 PM 30.7755 106.3118 29° Northeast  Level Estimated
Wed 12:53:00 PM 30.8725 106.3735 29° Northeast  Level Estimated
Wed 12:54:00 PM 30.9696 106.4352 29° Northeast  Level Estimated
Wed 12:55:00 PM 31.0666 106.4971 29° Northeast  Level Estimated
Wed 12:56:00 PM 31.1635 106.5591 29° Northeast  Level Estimated
Wed 12:57:00 PM 31.2605 106.6212 29° Northeast  Level Estimated
Wed 12:58:00 PM 31.3573 106.6835 29° Northeast  Level Estimated
Wed 12:59:00 PM 31.4542 106.7459 29° Northeast  Level Estimated
Wed 01:00:00 PM 31.5511 106.8084 29° Northeast  Level Estimated
Wed 01:01:00 PM 31.6479 106.8710 29° Northeast  Level Estimated
Wed 01:02:00 PM 31.7446 106.9338 29° Northeast  Level Estimated
Wed 01:03:00 PM 31.8414 106.9967 29° Northeast  Level Estimated
Wed 01:04:00 PM 31.9381 107.0597 29° Northeast  Level Estimated
Wed 01:05:00 PM 32.0348 107.1229 29° Northeast  Level Estimated
Wed 01:06:00 PM 32.1315 107.1862 29° Northeast  Level Estimated
Wed 01:07:00 PM 32.2281 107.2496 29° Northeast  Level Estimated
Wed 01:08:00 PM 32.3247 107.3132 29° Northeast  Level Estimated
Wed 01:09:00 PM 32.4212 107.3769 29° Northeast  Level Estimated
Wed 01:10:00 PM 32.5178 107.4408 29° Northeast  Level Estimated
Wed 01:11:00 PM 32.6143 107.5048 29° Northeast  Level Estimated
Wed 01:12:00 PM 32.7107 107.5689 29° Northeast  Level Estimated
Wed 01:13:00 PM 32.8072 107.6331 29° Northeast  Level Estimated
Wed 01:14:00 PM 32.9036 107.6975 29° Northeast  Level Estimated
Wed 01:15:00 PM 32.9999 107.7621 29° Northeast  Level Estimated
Wed 01:16:00 PM 33.0963 107.8268 29° Northeast  Level Estimated
Wed 01:17:00 PM 33.1926 107.8916 29° Northeast  Level Estimated
Wed 01:18:00 PM 33.2888 107.9565 29° Northeast  Level Estimated
Wed 01:19:00 PM 33.3851 108.0217 29° Northeast  Level Estimated
Wed 01:20:00 PM 33.4813 108.0869 29° Northeast  Level Estimated
Wed 01:21:00 PM 33.5774 108.1523 30° Northeast  Level Estimated
Wed 01:22:00 PM 33.6735 108.2178 30° Northeast  Level Estimated
Wed 01:23:00 PM 33.7696 108.2835 30° Northeast  Level Estimated
Wed 01:24:00 PM 33.8657 108.3494 30° Northeast  Level Estimated
Wed 01:25:00 PM 33.9617 108.4154 30° Northeast  Level Estimated
Wed 01:26:00 PM 34.0577 108.4815 30° Northeast  Level Estimated
Wed 01:27:00 PM 34.1537 108.5478 30° Northeast  Level Estimated
Wed 01:28:00 PM 34.2560 108.6187 30° Northeast  Level Estimated
Wed 01:29:00 PM 34.3582 108.6897 30° Northeast  Level Estimated
Wed 01:30:00 PM 34.4471 108.7516 30° Northeast  Level Estimated
Wed 01:31:00 PM 34.4471 108.7516 121° Southeast  Level Estimated
Wed 01:32:00 PM 34.4471 108.7516 121° Southeast  Level Estimated
Wed 01:33:00 PM 34.4471 108.7516 121° Southeast  Level Estimated
Wed 01:34:00 PM 34.4471 108.7516 121° Southeast  Level Estimated
Wed 01:35:00 PM 34.4471 108.7516 121° Southeast  Level Estimated
Wed 01:36:00 PM 34.4471 108.7516 121° Southeast  Level Estimated
Wed 01:37:00 PM 34.4471 108.7516 121° Southeast  Level Estimated
Wed 01:38:00 PM 34.4471 108.7516 121° Southeast  Level Estimated

Login

Don't have an account? Register now (free) for customized features, flight alerts, and more!